RUK9609 EGAA-LFOB
Flight info
| Callsign | RUK9609 |
|---|---|
| Flight time | 1h 13m |
| Altitude | 35000 |
| Route | LISBO L603 PEPOD L15 SOSIM Q38 GIGTO L15 HON UL612 WOD UM605 PETAX UZ296 VELOL |
| Aircraft | B738/M-SDE2E3FGHIRWXY/LB1 |
Departure
| Time | 2026-04-22 03:18 |
|---|---|
| Airport | Belfast International Airport (EGAA) |
Arrival
| Time | 2026-04-22 04:31 |
|---|---|
| Airport | Beauvais-Tillé airport (LFOB) |
| Time | Latitude | Longitude | Altitude | Speed | Heading |
|---|---|---|---|---|---|
| 2026-04-22 02:52 | 54.66011 | -6.21635 | 276 ft | 0 kts | 246° |
| 2026-04-22 03:08 | 54.66013 | -6.21626 | 276 ft | 2 kts | 244° |
| 2026-04-22 03:08 | 54.66021 | -6.21603 | 276 ft | 2 kts | 229° |
| 2026-04-22 03:08 | 54.66032 | -6.21585 | 276 ft | 2 kts | 205° |
| 2026-04-22 03:09 | 54.66045 | -6.21578 | 276 ft | 2 kts | 173° |
| 2026-04-22 03:09 | 54.66054 | -6.21582 | 276 ft | 0 kts | 158° |
| 2026-04-22 03:09 | 54.66055 | -6.21582 | 276 ft | 0 kts | 158° |
| 2026-04-22 03:13 | 54.66051 | -6.21579 | 276 ft | 2 kts | 158° |
| 2026-04-22 03:13 | 54.66021 | -6.21558 | 276 ft | 7 kts | 158° |
| 2026-04-22 03:14 | 54.65959 | -6.21514 | 276 ft | 12 kts | 158° |
| 2026-04-22 03:14 | 54.65882 | -6.21460 | 276 ft | 9 kts | 157° |
| 2026-04-22 03:14 | 54.65832 | -6.21431 | 276 ft | 9 kts | 171° |
| 2026-04-22 03:14 | 54.65758 | -6.21521 | 276 ft | 18 kts | 240° |
| 2026-04-22 03:15 | 54.65694 | -6.21702 | 276 ft | 13 kts | 251° |
| 2026-04-22 03:15 | 54.65657 | -6.21890 | 276 ft | 20 kts | 249° |
| 2026-04-22 03:15 | 54.65595 | -6.22146 | 276 ft | 26 kts | 247° |
| 2026-04-22 03:15 | 54.65513 | -6.22448 | 276 ft | 29 kts | 238° |
| 2026-04-22 03:16 | 54.65422 | -6.22752 | 276 ft | 28 kts | 243° |
| 2026-04-22 03:16 | 54.65334 | -6.23058 | 276 ft | 28 kts | 248° |
| 2026-04-22 03:16 | 54.65298 | -6.23246 | 276 ft | 3 kts | 20° |
| 2026-04-22 03:16 | 54.65303 | -6.23236 | 276 ft | 0 kts | 54° |
| 2026-04-22 03:17 | 54.65304 | -6.23233 | 276 ft | 4 kts | 54° |
| 2026-04-22 03:17 | 54.65451 | -6.22726 | 276 ft | 90 kts | 70° |
| 2026-04-22 03:18 | 54.65812 | -6.21391 | 405 ft | 147 kts | 64° |
| 2026-04-22 03:18 | 54.66247 | -6.19832 | 1488 ft | 136 kts | 68° |
| 2026-04-22 03:18 | 54.66349 | -6.18301 | 2442 ft | 131 kts | 108° |
| 2026-04-22 03:18 | 54.65746 | -6.17017 | 2997 ft | 153 kts | 144° |
| 2026-04-22 03:19 | 54.64656 | -6.16270 | 3427 ft | 186 kts | 157° |
| 2026-04-22 03:19 | 54.63340 | -6.15482 | 3785 ft | 213 kts | 156° |
| 2026-04-22 03:19 | 54.61910 | -6.14617 | 4503 ft | 221 kts | 156° |
| 2026-04-22 03:19 | 54.60391 | -6.13704 | 5196 ft | 238 kts | 157° |
| 2026-04-22 03:20 | 54.58779 | -6.12740 | 5916 ft | 251 kts | 157° |
| 2026-04-22 03:20 | 54.57120 | -6.11750 | 6896 ft | 255 kts | 157° |
| 2026-04-22 03:20 | 54.55427 | -6.10742 | 7840 ft | 260 kts | 158° |
| 2026-04-22 03:20 | 54.53724 | -6.09653 | 8758 ft | 263 kts | 151° |
| 2026-04-22 03:21 | 54.52204 | -6.07903 | 9659 ft | 265 kts | 137° |
| 2026-04-22 03:21 | 54.50905 | -6.05636 | 10524 ft | 270 kts | 131° |
| 2026-04-22 03:21 | 54.49660 | -6.03169 | 11296 ft | 279 kts | 129° |
| 2026-04-22 03:21 | 54.48389 | -6.00542 | 11725 ft | 300 kts | 130° |
| 2026-04-22 03:22 | 54.46988 | -5.97608 | 12169 ft | 320 kts | 129° |
| 2026-04-22 03:22 | 54.45554 | -5.94607 | 12863 ft | 329 kts | 130° |
| 2026-04-22 03:22 | 54.44101 | -5.91589 | 13609 ft | 336 kts | 130° |
| 2026-04-22 03:22 | 54.42597 | -5.88482 | 14381 ft | 341 kts | 130° |
| 2026-04-22 03:23 | 54.41073 | -5.85343 | 15270 ft | 342 kts | 131° |
| 2026-04-22 03:23 | 54.39518 | -5.82150 | 15903 ft | 353 kts | 132° |
| 2026-04-22 03:23 | 54.37908 | -5.78862 | 16427 ft | 364 kts | 133° |
| 2026-04-22 03:23 | 54.36256 | -5.75496 | 16987 ft | 374 kts | 133° |
| 2026-04-22 03:24 | 54.34557 | -5.72043 | 17489 ft | 386 kts | 133° |
| 2026-04-22 03:24 | 54.32812 | -5.68499 | 18031 ft | 395 kts | 132° |
| 2026-04-22 03:24 | 54.31028 | -5.64879 | 18589 ft | 403 kts | 131° |
| 2026-04-22 03:24 | 54.29204 | -5.61176 | 19259 ft | 408 kts | 130° |
| 2026-04-22 03:25 | 54.27372 | -5.57456 | 19926 ft | 412 kts | 130° |
| 2026-04-22 03:25 | 54.25577 | -5.53577 | 20577 ft | 416 kts | 126° |
| 2026-04-22 03:25 | 54.23918 | -5.49500 | 21205 ft | 420 kts | 124° |
| 2026-04-22 03:25 | 54.22237 | -5.45412 | 21814 ft | 425 kts | 125° |
| 2026-04-22 03:26 | 54.20491 | -5.41305 | 22407 ft | 429 kts | 126° |
| 2026-04-22 03:26 | 54.18731 | -5.37169 | 22968 ft | 433 kts | 125° |
| 2026-04-22 03:26 | 54.16931 | -5.32926 | 23526 ft | 438 kts | 125° |
| 2026-04-22 03:26 | 54.15164 | -5.28692 | 24085 ft | 441 kts | 125° |
| 2026-04-22 03:27 | 54.13385 | -5.24449 | 24733 ft | 441 kts | 126° |
| 2026-04-22 03:27 | 54.11590 | -5.20215 | 25356 ft | 441 kts | 126° |
| 2026-04-22 03:27 | 54.09786 | -5.15983 | 25947 ft | 442 kts | 126° |
| 2026-04-22 03:27 | 54.07973 | -5.11744 | 26483 ft | 444 kts | 126° |
| 2026-04-22 03:28 | 54.06164 | -5.07526 | 27038 ft | 444 kts | 126° |
| 2026-04-22 03:28 | 54.04322 | -5.03239 | 27594 ft | 445 kts | 126° |
| 2026-04-22 03:28 | 54.02504 | -4.99014 | 28117 ft | 445 kts | 126° |
| 2026-04-22 03:28 | 54.00647 | -4.94704 | 28624 ft | 446 kts | 126° |
| 2026-04-22 03:29 | 53.98811 | -4.90445 | 29099 ft | 447 kts | 126° |
| 2026-04-22 03:29 | 53.96982 | -4.86195 | 29537 ft | 448 kts | 126° |
| 2026-04-22 03:29 | 53.95116 | -4.81862 | 29989 ft | 448 kts | 126° |
| 2026-04-22 03:29 | 53.93274 | -4.77620 | 30543 ft | 446 kts | 126° |
| 2026-04-22 03:30 | 53.91433 | -4.73402 | 31034 ft | 445 kts | 126° |
| 2026-04-22 03:30 | 53.89595 | -4.69203 | 31493 ft | 444 kts | 126° |
| 2026-04-22 03:30 | 53.87751 | -4.65004 | 31952 ft | 443 kts | 126° |
| 2026-04-22 03:30 | 53.85914 | -4.60825 | 32422 ft | 442 kts | 126° |
| 2026-04-22 03:31 | 53.84076 | -4.56653 | 32885 ft | 441 kts | 126° |
| 2026-04-22 03:31 | 53.82258 | -4.52524 | 33343 ft | 439 kts | 126° |
| 2026-04-22 03:31 | 53.80449 | -4.48374 | 33770 ft | 438 kts | 125° |
| 2026-04-22 03:31 | 53.78655 | -4.44237 | 34227 ft | 436 kts | 125° |
| 2026-04-22 03:32 | 53.76855 | -4.40115 | 34661 ft | 434 kts | 125° |
| 2026-04-22 03:32 | 53.75039 | -4.35979 | 35094 ft | 433 kts | 125° |
| 2026-04-22 03:32 | 53.73245 | -4.31908 | 35348 ft | 435 kts | 125° |
| 2026-04-22 03:32 | 53.71427 | -4.27796 | 35391 ft | 437 kts | 125° |
| 2026-04-22 03:33 | 53.67810 | -4.19635 | 35397 ft | 433 kts | 125° |
| 2026-04-22 03:33 | 53.64216 | -4.11540 | 35393 ft | 430 kts | 125° |
| 2026-04-22 03:34 | 53.60593 | -4.03444 | 35398 ft | 431 kts | 125° |
| 2026-04-22 03:34 | 53.57010 | -3.95387 | 35408 ft | 431 kts | 126° |
| 2026-04-22 03:35 | 53.53395 | -3.87367 | 35424 ft | 431 kts | 126° |
| 2026-04-22 03:35 | 53.49764 | -3.79363 | 35424 ft | 431 kts | 126° |
| 2026-04-22 03:36 | 53.46722 | -3.72685 | 35429 ft | 431 kts | 126° |
| 2026-04-22 03:36 | 53.43084 | -3.64711 | 35440 ft | 432 kts | 126° |
| 2026-04-22 03:37 | 53.39312 | -3.56791 | 35446 ft | 432 kts | 130° |
| 2026-04-22 03:37 | 53.35327 | -3.49333 | 35446 ft | 432 kts | 130° |
| 2026-04-22 03:38 | 53.31344 | -3.41762 | 35444 ft | 432 kts | 130° |
| 2026-04-22 03:38 | 53.27343 | -3.34170 | 35448 ft | 432 kts | 130° |
| 2026-04-22 03:39 | 53.23366 | -3.26667 | 35442 ft | 432 kts | 130° |
| 2026-04-22 03:39 | 53.19386 | -3.19175 | 35437 ft | 432 kts | 130° |
| 2026-04-22 03:40 | 53.15409 | -3.11659 | 35440 ft | 432 kts | 130° |
| 2026-04-22 03:40 | 53.11390 | -3.04135 | 35440 ft | 432 kts | 130° |
| 2026-04-22 03:41 | 53.07418 | -2.96733 | 35430 ft | 432 kts | 130° |
| 2026-04-22 03:41 | 53.03394 | -2.89250 | 35424 ft | 432 kts | 130° |
| 2026-04-22 03:42 | 52.99377 | -2.81723 | 35421 ft | 432 kts | 130° |
| 2026-04-22 03:42 | 52.95373 | -2.74291 | 35416 ft | 432 kts | 130° |
| 2026-04-22 03:43 | 52.91372 | -2.66916 | 35411 ft | 432 kts | 130° |
| 2026-04-22 03:43 | 52.87343 | -2.59519 | 35402 ft | 433 kts | 131° |
| 2026-04-22 03:44 | 52.83303 | -2.52119 | 35353 ft | 433 kts | 131° |
| 2026-04-22 03:44 | 52.79218 | -2.44656 | 35337 ft | 432 kts | 131° |
| 2026-04-22 03:45 | 52.75099 | -2.37171 | 35369 ft | 433 kts | 131° |
| 2026-04-22 03:45 | 52.71074 | -2.29881 | 35227 ft | 433 kts | 131° |
| 2026-04-22 03:46 | 52.66992 | -2.22509 | 35107 ft | 433 kts | 131° |
| 2026-04-22 03:46 | 52.62934 | -2.15200 | 35076 ft | 433 kts | 131° |
| 2026-04-22 03:47 | 52.58875 | -2.07909 | 35069 ft | 433 kts | 131° |
| 2026-04-22 03:47 | 52.54820 | -2.00503 | 35105 ft | 433 kts | 131° |
| 2026-04-22 03:48 | 52.50777 | -1.93191 | 35166 ft | 434 kts | 131° |
| 2026-04-22 03:48 | 52.46660 | -1.85832 | 35221 ft | 434 kts | 131° |
| 2026-04-22 03:49 | 52.42576 | -1.78577 | 35277 ft | 434 kts | 131° |
| 2026-04-22 03:49 | 52.38478 | -1.71338 | 35308 ft | 434 kts | 133° |
| 2026-04-22 03:50 | 52.33814 | -1.65134 | 35342 ft | 436 kts | 147° |
| 2026-04-22 03:50 | 52.28507 | -1.60413 | 35362 ft | 432 kts | 152° |
| 2026-04-22 03:51 | 52.23093 | -1.56021 | 35370 ft | 435 kts | 153° |
| 2026-04-22 03:51 | 52.17676 | -1.51625 | 35374 ft | 431 kts | 153° |
| 2026-04-22 03:52 | 52.12395 | -1.47338 | 35378 ft | 423 kts | 152° |
| 2026-04-22 03:52 | 52.07065 | -1.43016 | 35378 ft | 431 kts | 153° |
| 2026-04-22 03:53 | 52.01667 | -1.38618 | 35370 ft | 437 kts | 153° |
| 2026-04-22 03:53 | 51.96211 | -1.34203 | 35358 ft | 437 kts | 153° |
| 2026-04-22 03:54 | 51.90777 | -1.29832 | 35351 ft | 437 kts | 153° |
| 2026-04-22 03:54 | 51.85354 | -1.25438 | 35354 ft | 437 kts | 153° |
| 2026-04-22 03:55 | 51.79961 | -1.21104 | 35345 ft | 430 kts | 154° |
| 2026-04-22 03:55 | 51.74668 | -1.16888 | 35345 ft | 428 kts | 154° |
| 2026-04-22 03:56 | 51.69304 | -1.12616 | 35337 ft | 423 kts | 155° |
| 2026-04-22 03:56 | 51.64004 | -1.08412 | 35299 ft | 431 kts | 154° |
| 2026-04-22 03:57 | 51.58787 | -1.03351 | 35285 ft | 439 kts | 145° |
| 2026-04-22 03:57 | 51.53853 | -0.97650 | 35304 ft | 436 kts | 145° |
| 2026-04-22 03:58 | 51.48916 | -0.92017 | 35297 ft | 436 kts | 145° |
| 2026-04-22 03:58 | 51.44042 | -0.86178 | 35259 ft | 438 kts | 139° |
| 2026-04-22 03:59 | 51.39534 | -0.79562 | 35254 ft | 437 kts | 137° |
| 2026-04-22 03:59 | 51.35069 | -0.72956 | 35256 ft | 437 kts | 137° |
| 2026-04-22 04:00 | 51.30562 | -0.66343 | 35234 ft | 439 kts | 137° |
| 2026-04-22 04:00 | 51.26052 | -0.59759 | 35218 ft | 440 kts | 137° |
| 2026-04-22 04:01 | 51.21559 | -0.53224 | 35199 ft | 439 kts | 137° |
| 2026-04-22 04:01 | 51.17049 | -0.46628 | 35192 ft | 439 kts | 137° |
| 2026-04-22 04:02 | 51.12539 | -0.40046 | 35243 ft | 441 kts | 137° |
| 2026-04-22 04:02 | 51.08013 | -0.33479 | 35275 ft | 441 kts | 137° |
| 2026-04-22 04:03 | 51.03480 | -0.26933 | 35287 ft | 440 kts | 137° |
| 2026-04-22 04:03 | 51.01186 | -0.23629 | 35054 ft | 438 kts | 137° |
| 2026-04-22 04:03 | 50.99705 | -0.21491 | 34769 ft | 435 kts | 137° |
| 2026-04-22 04:04 | 50.97475 | -0.18252 | 34321 ft | 432 kts | 137° |
| 2026-04-22 04:04 | 50.95263 | -0.15061 | 33878 ft | 430 kts | 137° |
| 2026-04-22 04:04 | 50.93030 | -0.11859 | 33435 ft | 427 kts | 137° |
| 2026-04-22 04:04 | 50.90831 | -0.08715 | 33002 ft | 425 kts | 138° |
| 2026-04-22 04:05 | 50.88638 | -0.05590 | 32573 ft | 423 kts | 138° |
| 2026-04-22 04:05 | 50.86460 | -0.02492 | 32148 ft | 421 kts | 138° |
| 2026-04-22 04:05 | 50.84289 | 0.00592 | 31727 ft | 419 kts | 138° |
| 2026-04-22 04:05 | 50.82126 | 0.03660 | 31310 ft | 417 kts | 138° |
| 2026-04-22 04:06 | 50.79965 | 0.06723 | 30897 ft | 415 kts | 138° |
| 2026-04-22 04:06 | 50.77858 | 0.09707 | 30492 ft | 413 kts | 139° |
| 2026-04-22 04:06 | 50.75688 | 0.12768 | 30082 ft | 412 kts | 139° |
| 2026-04-22 04:06 | 50.73484 | 0.15639 | 29683 ft | 410 kts | 140° |
| 2026-04-22 04:07 | 50.71265 | 0.18444 | 29279 ft | 408 kts | 139° |
| 2026-04-22 04:07 | 50.69062 | 0.21232 | 28869 ft | 406 kts | 139° |
| 2026-04-22 04:07 | 50.66864 | 0.24018 | 28456 ft | 405 kts | 139° |
| 2026-04-22 04:07 | 50.64672 | 0.26798 | 28022 ft | 405 kts | 140° |
| 2026-04-22 04:08 | 50.63226 | 0.28631 | 27738 ft | 404 kts | 140° |
| 2026-04-22 04:08 | 50.61052 | 0.31392 | 27268 ft | 406 kts | 141° |
| 2026-04-22 04:08 | 50.58854 | 0.34173 | 26846 ft | 405 kts | 142° |
| 2026-04-22 04:08 | 50.56671 | 0.36951 | 26433 ft | 405 kts | 142° |
| 2026-04-22 04:09 | 50.54480 | 0.39741 | 26022 ft | 404 kts | 142° |
| 2026-04-22 04:09 | 50.52299 | 0.42510 | 25603 ft | 404 kts | 142° |
| 2026-04-22 04:09 | 50.50113 | 0.45281 | 25183 ft | 404 kts | 142° |
| 2026-04-22 04:09 | 50.47928 | 0.48047 | 24749 ft | 404 kts | 142° |
| 2026-04-22 04:10 | 50.45720 | 0.50846 | 24321 ft | 405 kts | 142° |
| 2026-04-22 04:10 | 50.43526 | 0.53620 | 23891 ft | 405 kts | 141° |
| 2026-04-22 04:10 | 50.41334 | 0.56379 | 23491 ft | 405 kts | 138° |
| 2026-04-22 04:10 | 50.39144 | 0.59139 | 23081 ft | 404 kts | 138° |
| 2026-04-22 04:11 | 50.36956 | 0.61890 | 22661 ft | 404 kts | 138° |
| 2026-04-22 04:11 | 50.34768 | 0.64649 | 22248 ft | 403 kts | 138° |
| 2026-04-22 04:11 | 50.32595 | 0.67396 | 21834 ft | 403 kts | 138° |
| 2026-04-22 04:11 | 50.30409 | 0.70148 | 21414 ft | 402 kts | 139° |
| 2026-04-22 04:12 | 50.28239 | 0.72870 | 21016 ft | 401 kts | 139° |
| 2026-04-22 04:12 | 50.26066 | 0.75594 | 20603 ft | 400 kts | 139° |
| 2026-04-22 04:12 | 50.23900 | 0.78303 | 20202 ft | 399 kts | 139° |
| 2026-04-22 04:12 | 50.21722 | 0.81023 | 19791 ft | 393 kts | 139° |
| 2026-04-22 04:13 | 50.19616 | 0.83663 | 19396 ft | 386 kts | 138° |
| 2026-04-22 04:13 | 50.17684 | 0.86449 | 19011 ft | 377 kts | 131° |
| 2026-04-22 04:13 | 50.15934 | 0.89466 | 18629 ft | 369 kts | 128° |
| 2026-04-22 04:13 | 50.14295 | 0.92484 | 18247 ft | 363 kts | 128° |
| 2026-04-22 04:14 | 50.12684 | 0.95474 | 17880 ft | 357 kts | 129° |
| 2026-04-22 04:14 | 50.11052 | 0.98419 | 17524 ft | 352 kts | 129° |
| 2026-04-22 04:14 | 50.09486 | 1.01223 | 17183 ft | 346 kts | 133° |
| 2026-04-22 04:14 | 50.07909 | 1.04059 | 16714 ft | 344 kts | 134° |
| 2026-04-22 04:15 | 50.06306 | 1.06893 | 16259 ft | 341 kts | 135° |
| 2026-04-22 04:15 | 50.04742 | 1.09617 | 15917 ft | 336 kts | 131° |
| 2026-04-22 04:15 | 50.03215 | 1.12317 | 15580 ft | 330 kts | 130° |
| 2026-04-22 04:15 | 50.01694 | 1.15001 | 15247 ft | 325 kts | 130° |
| 2026-04-22 04:16 | 50.00208 | 1.17620 | 14923 ft | 325 kts | 130° |
| 2026-04-22 04:16 | 49.97176 | 1.22948 | 14272 ft | 333 kts | 131° |
| 2026-04-22 04:16 | 49.95651 | 1.25625 | 13945 ft | 330 kts | 131° |
| 2026-04-22 04:17 | 49.94076 | 1.28139 | 13628 ft | 328 kts | 138° |
| 2026-04-22 04:17 | 49.92276 | 1.30344 | 13346 ft | 325 kts | 146° |
| 2026-04-22 04:17 | 49.90361 | 1.32153 | 13033 ft | 324 kts | 150° |
| 2026-04-22 04:17 | 49.88430 | 1.33884 | 12838 ft | 319 kts | 151° |
| 2026-04-22 04:18 | 49.86531 | 1.35628 | 12579 ft | 315 kts | 149° |
| 2026-04-22 04:18 | 49.84664 | 1.37326 | 12450 ft | 307 kts | 146° |
| 2026-04-22 04:18 | 49.82872 | 1.39009 | 12369 ft | 297 kts | 144° |
| 2026-04-22 04:18 | 49.81142 | 1.40638 | 12322 ft | 286 kts | 144° |
| 2026-04-22 04:19 | 49.79420 | 1.42258 | 11860 ft | 291 kts | 145° |
| 2026-04-22 04:19 | 49.77679 | 1.43887 | 11378 ft | 292 kts | 145° |
| 2026-04-22 04:19 | 49.75963 | 1.45494 | 11027 ft | 288 kts | 145° |
| 2026-04-22 04:19 | 49.74258 | 1.47089 | 10645 ft | 285 kts | 146° |
| 2026-04-22 04:20 | 49.72566 | 1.48671 | 10286 ft | 283 kts | 146° |
| 2026-04-22 04:20 | 49.70877 | 1.50217 | 9962 ft | 278 kts | 148° |
| 2026-04-22 04:20 | 49.69254 | 1.51698 | 9868 ft | 262 kts | 146° |
| 2026-04-22 04:20 | 49.67769 | 1.53132 | 9772 ft | 248 kts | 147° |
| 2026-04-22 04:21 | 49.66331 | 1.54504 | 9682 ft | 235 kts | 147° |
| 2026-04-22 04:21 | 49.64953 | 1.55807 | 9568 ft | 224 kts | 147° |
| 2026-04-22 04:21 | 49.63648 | 1.57039 | 9377 ft | 215 kts | 147° |
| 2026-04-22 04:21 | 49.62519 | 1.58389 | 9315 ft | 199 kts | 131° |
| 2026-04-22 04:22 | 49.61848 | 1.60156 | 9145 ft | 187 kts | 110° |
| 2026-04-22 04:22 | 49.61547 | 1.62086 | 8800 ft | 186 kts | 101° |
| 2026-04-22 04:22 | 49.61375 | 1.64064 | 8446 ft | 186 kts | 98° |
| 2026-04-22 04:22 | 49.61246 | 1.66027 | 8117 ft | 183 kts | 97° |
| 2026-04-22 04:23 | 49.61116 | 1.67974 | 7769 ft | 181 kts | 97° |
| 2026-04-22 04:23 | 49.60983 | 1.69941 | 7196 ft | 192 kts | 97° |
| 2026-04-22 04:23 | 49.60837 | 1.72061 | 6462 ft | 207 kts | 96° |
| 2026-04-22 04:23 | 49.60682 | 1.74323 | 5851 ft | 214 kts | 96° |
| 2026-04-22 04:24 | 49.60381 | 1.76587 | 5552 ft | 211 kts | 108° |
| 2026-04-22 04:24 | 49.59728 | 1.78581 | 5285 ft | 208 kts | 120° |
| 2026-04-22 04:24 | 49.58907 | 1.80390 | 5012 ft | 204 kts | 122° |
| 2026-04-22 04:24 | 49.58109 | 1.82167 | 4742 ft | 199 kts | 122° |
| 2026-04-22 04:25 | 49.57346 | 1.83899 | 4475 ft | 191 kts | 122° |
| 2026-04-22 04:25 | 49.56619 | 1.85563 | 4217 ft | 184 kts | 122° |
| 2026-04-22 04:25 | 49.55924 | 1.87158 | 3977 ft | 176 kts | 121° |
| 2026-04-22 04:25 | 49.55269 | 1.88664 | 3765 ft | 163 kts | 120° |
| 2026-04-22 04:26 | 49.54666 | 1.90050 | 3550 ft | 151 kts | 120° |
| 2026-04-22 04:26 | 49.54096 | 1.91358 | 3347 ft | 141 kts | 119° |
| 2026-04-22 04:26 | 49.53572 | 1.92563 | 3171 ft | 130 kts | 119° |
| 2026-04-22 04:26 | 49.53090 | 1.93673 | 3034 ft | 120 kts | 118° |
| 2026-04-22 04:27 | 49.52635 | 1.94718 | 2882 ft | 115 kts | 118° |
| 2026-04-22 04:27 | 49.52190 | 1.95742 | 2707 ft | 116 kts | 117° |
| 2026-04-22 04:27 | 49.51738 | 1.96782 | 2542 ft | 121 kts | 118° |
| 2026-04-22 04:27 | 49.51249 | 1.97909 | 2376 ft | 131 kts | 119° |
| 2026-04-22 04:28 | 49.50746 | 1.99066 | 2200 ft | 129 kts | 121° |
| 2026-04-22 04:28 | 49.50262 | 2.00180 | 2026 ft | 121 kts | 120° |
| 2026-04-22 04:28 | 49.49806 | 2.01231 | 1862 ft | 115 kts | 117° |
| 2026-04-22 04:28 | 49.49362 | 2.02254 | 1702 ft | 112 kts | 117° |
| 2026-04-22 04:29 | 49.48934 | 2.03239 | 1555 ft | 111 kts | 116° |
| 2026-04-22 04:29 | 49.48496 | 2.04250 | 1406 ft | 111 kts | 116° |
| 2026-04-22 04:29 | 49.48063 | 2.05248 | 1253 ft | 113 kts | 116° |
| 2026-04-22 04:29 | 49.47613 | 2.06287 | 1096 ft | 119 kts | 117° |
| 2026-04-22 04:30 | 49.47145 | 2.07365 | 930 ft | 124 kts | 120° |
| 2026-04-22 04:30 | 49.46655 | 2.08497 | 760 ft | 130 kts | 122° |
| 2026-04-22 04:30 | 49.46142 | 2.09680 | 578 ft | 132 kts | 123° |
| 2026-04-22 04:30 | 49.45646 | 2.10857 | 387 ft | 132 kts | 130° |
| 2026-04-22 04:31 | 49.45176 | 2.11878 | 367 ft | 84 kts | 120° |
| 2026-04-22 04:31 | 49.45040 | 2.12272 | 367 ft | 29 kts | 96° |
| 2026-04-22 04:31 | 49.45057 | 2.12464 | 367 ft | 6 kts | 28° |
| 2026-04-22 04:31 | 49.45083 | 2.12437 | 367 ft | 6 kts | 304° |
| 2026-04-22 04:32 | 49.45116 | 2.12359 | 367 ft | 11 kts | 302° |
| 2026-04-22 04:32 | 49.45153 | 2.12267 | 367 ft | 9 kts | 302° |
| 2026-04-22 04:32 | 49.45171 | 2.12222 | 367 ft | 6 kts | 302° |
| 2026-04-22 04:32 | 49.45191 | 2.12174 | 367 ft | 0 kts | 302° |